Time;durP1;ratioP1;P1;durP2;ratioP2;P2;SDS_P1;SDS_P2;PMS_P1;PMS_P2;Temp;Humidity;BMP_temperature;BMP_pressure;BME280_temperature;BME280_humidity;BME280_pressure;Samples;Min_cycle;Max_cycle;Signal;HPM_P1;HPM_P2
2022/08/16 00:00:58;;;;;;;16.40;14.75;;;;;;;18.52;98.33;100439.81;2047744;28;20913;-74
2022/08/16 00:02:01;;;;;;;17.20;15.43;;;;;;;18.54;98.34;100446.00;2046879;28;27511;-74
2022/08/16 00:03:05;;;;;;;16.23;14.63;;;;;;;18.54;98.33;100443.31;2054503;28;22398;-74
2022/08/16 00:04:08;;;;;;;16.75;15.05;;;;;;;18.58;98.71;100443.97;2053755;28;20093;-74
2022/08/16 00:05:12;;;;;;;17.60;15.98;;;;;;;18.60;98.79;100448.31;2047763;28;20056;-73
2022/08/16 00:06:14;;;;;;;17.13;15.52;;;;;;;18.59;98.35;100451.13;2046968;28;31140;-74
2022/08/16 00:07:16;;;;;;;18.35;16.55;;;;;;;18.59;98.43;100441.16;2047300;28;29771;-74
2022/08/16 00:08:19;;;;;;;17.52;15.90;;;;;;;18.58;98.36;100447.53;2046777;28;32785;-74
2022/08/16 00:09:31;;;;;;;19.25;17.38;;;;;;;18.56;98.38;100445.91;2048285;28;30866;-74
2022/08/16 00:10:34;;;;;;;18.65;16.83;;;;;;;18.55;98.46;100445.03;2049069;28;20907;-73
2022/08/16 00:11:37;;;;;;;20.48;18.40;;;;;;;18.55;98.49;100447.72;2055985;28;25303;-74
2022/08/16 00:12:40;;;;;;;20.70;18.63;;;;;;;18.55;98.69;100439.59;2055401;28;29797;-73
2022/08/16 00:13:44;;;;;;;22.25;19.90;;;;;;;18.55;98.81;100444.16;2055877;28;29104;-74
2022/08/16 00:15:09;;;;;;;22.85;20.52;;;;;;;18.54;99.59;100447.81;2054536;28;22040;-73
2022/08/16 00:16:12;;;;;;;22.60;20.40;;;;;;;18.54;99.73;100443.31;2056346;28;20078;-74
2022/08/16 00:17:34;;;;;;;21.88;19.63;;;;;;;18.54;99.71;100443.31;2056104;28;20043;-74
2022/08/16 00:18:41;;;;;;;24.42;22.00;;;;;;;18.54;99.99;100445.13;2052802;28;28096;-74
2022/08/16 00:19:43;;;;;;;23.52;21.20;;;;;;;18.55;100.00;100439.59;2048246;28;29584;-74
2022/08/16 00:20:47;;;;;;;24.63;22.13;;;;;;;18.56;100.00;100443.19;2048280;28;33231;-74
2022/08/16 00:21:50;;;;;;;27.50;24.73;;;;;;;18.57;100.00;100445.78;2056050;28;23049;-74
2022/08/16 00:22:53;;;;;;;25.10;22.42;;;;;;;18.53;100.00;100446.97;2055408;28;31631;-73
2022/08/16 00:23:56;;;;;;;22.17;20.15;;;;;;;18.50;100.00;100441.72;2055693;28;24852;-74
2022/08/16 00:24:58;;;;;;;26.13;23.42;;;;;;;18.49;100.00;100442.72;2047777;28;29443;-74
2022/08/16 00:26:02;;;;;;;26.40;23.80;;;;;;;18.48;100.00;100438.25;2048632;28;31166;-74
2022/08/16 00:27:26;;;;;;;25.35;22.80;;;;;;;18.48;100.00;100444.56;2055769;28;20047;-74
2022/08/16 00:28:28;;;;;;;26.10;23.40;;;;;;;18.46;100.00;100434.78;2047706;28;21007;-74
2022/08/16 00:29:31;;;;;;;24.38;21.90;;;;;;;18.42;100.00;100428.69;2048047;28;20051;-74
2022/08/16 00:30:33;;;;;;;25.63;22.90;;;;;;;18.42;100.00;100438.66;2055733;28;20032;-73
2022/08/16 00:31:36;;;;;;;26.60;23.88;;;;;;;18.39;100.00;100431.56;2048759;28;24350;-74
2022/08/16 00:32:52;;;;;;;25.42;22.92;;;;;;;18.38;100.00;100431.69;2056453;28;20035;-74
2022/08/16 00:33:54;;;;;;;29.50;26.08;;;;;;;18.37;100.00;100435.38;2054072;28;20118;-74
2022/08/16 00:34:55;;;;;;;29.58;26.60;;;;;;;18.36;100.00;100431.78;2048576;28;20862;-74
2022/08/16 00:35:57;;;;;;;30.20;27.02;;;;;;;18.34;100.00;100430.13;2048792;28;20643;-74
2022/08/16 00:36:59;;;;;;;30.17;27.17;;;;;;;18.34;100.00;100433.72;2048006;28;29394;-73
2022/08/16 00:38:03;;;;;;;29.65;26.38;;;;;;;18.33;100.00;100428.41;2048221;28;20057;-74
2022/08/16 00:39:25;;;;;;;30.20;27.15;;;;;;;18.32;100.00;100435.66;2050954;28;20051;-73
2022/08/16 00:40:51;;;;;;;30.60;27.50;;;;;;;18.29;100.00;100433.16;2053475;28;20044;-74
2022/08/16 00:41:54;;;;;;;28.50;25.50;;;;;;;18.28;100.00;100434.97;2056143;28;20360;-74
2022/08/16 00:42:56;;;;;;;30.48;27.30;;;;;;;18.27;100.00;100438.66;2055645;28;29815;-74
2022/08/16 00:44:09;;;;;;;30.48;27.35;;;;;;;18.26;100.00;100436.91;2055561;28;20047;-74
2022/08/16 00:45:35;;;;;;;34.25;30.42;;;;;;;18.30;100.00;100441.19;2055869;28;20036;-73
2022/08/16 00:46:52;;;;;;;33.40;29.80;;;;;;;18.35;100.00;100448.16;2047731;28;26364;-74
2022/08/16 00:48:09;;;;;;;33.40;29.90;;;;;;;18.38;100.00;100447.97;2050860;28;20932;-74
2022/08/16 00:49:30;;;;;;;34.53;30.80;;;;;;;18.37;100.00;100440.78;2049838;28;20036;-74
2022/08/16 00:50:42;;;;;;;34.28;30.67;;;;;;;18.38;100.00;100450.69;2048754;28;30720;-74
2022/08/16 00:51:44;;;;;;;36.20;32.40;;;;;;;18.36;100.00;100450.75;2055460;28;20133;-73
2022/08/16 00:52:46;;;;;;;37.40;33.15;;;;;;;18.37;100.00;100449.78;2056905;28;20205;-74
2022/08/16 00:53:53;;;;;;;37.00;33.22;;;;;;;18.37;100.00;100446.22;2055711;28;20733;-74
2022/08/16 00:54:55;;;;;;;36.85;32.95;;;;;;;18.39;100.00;100449.69;2055435;28;20147;-74
2022/08/16 00:56:04;;;;;;;37.28;33.25;;;;;;;18.37;100.00;100443.50;2055547;28;24085;-73
2022/08/16 00:57:06;;;;;;;37.10;33.28;;;;;;;18.38;100.00;100442.53;2048388;28;20125;-73
2022/08/16 00:58:10;;;;;;;37.45;33.47;;;;;;;18.37;100.00;100444.34;2048819;28;20107;-73
2022/08/16 00:59:17;;;;;;;35.40;31.65;;;;;;;18.36;100.00;100439.03;2055684;28;26155;-73
2022/08/16 01:00:19;;;;;;;35.05;31.45;;;;;;;18.34;100.00;100450.00;2055595;28;20947;-73
2022/08/16 01:01:22;;;;;;;36.65;32.90;;;;;;;18.34;100.00;100443.69;2054907;28;32778;-73
2022/08/16 01:02:23;;;;;;;35.45;31.88;;;;;;;18.33;100.00;100444.66;2046770;28;33265;-73
2022/08/16 01:03:34;;;;;;;36.75;32.63;;;;;;;18.30;100.00;100438.47;2048015;28;23456;-73
2022/08/16 01:04:38;;;;;;;36.22;32.40;;;;;;;18.30;100.00;100440.28;2048381;28;20943;-73
2022/08/16 01:05:42;;;;;;;34.22;30.63;;;;;;;18.27;100.00;100433.25;2049381;28;20036;-73
2022/08/16 01:06:44;;;;;;;35.30;31.60;;;;;;;18.29;100.00;100434.00;2048522;28;20039;-73
2022/08/16 01:07:52;;;;;;;35.53;31.80;;;;;;;18.30;100.00;100434.88;2056394;28;20039;-74
2022/08/16 01:08:56;;;;;;;33.15;29.88;;;;;;;18.28;100.00;100443.09;2055506;28;20840;-73
2022/08/16 01:10:03;;;;;;;31.58;28.38;;;;;;;18.26;100.00;100439.63;2047667;28;20921;-73
2022/08/16 01:11:06;;;;;;;33.72;30.35;;;;;;;18.24;100.00;100440.69;2047877;28;22141;-73
2022/08/16 01:12:10;;;;;;;33.38;30.02;;;;;;;18.23;100.00;100442.53;2055869;28;20905;-74
2022/08/16 01:13:23;;;;;;;35.28;31.55;;;;;;;18.25;100.00;100447.84;2055063;28;36964;-74
2022/08/16 01:14:34;;;;;;;34.10;30.23;;;;;;;18.22;100.00;100446.22;2055851;28;20111;-74
2022/08/16 01:15:40;;;;;;;33.05;29.83;;;;;;;18.25;100.00;100453.25;2047584;28;31922;-74
2022/08/16 01:16:45;;;;;;;31.45;28.35;;;;;;;18.23;100.00;100450.69;2047088;28;20118;-74
2022/08/16 01:17:48;;;;;;;35.08;31.38;;;;;;;18.23;100.00;100445.25;2048167;28;20885;-74
2022/08/16 01:19:38;;;;;;;31.40;28.20;;;;;;;18.20;100.00;100448.16;2054505;28;20043;-74
2022/08/16 01:20:52;;;;;;;33.95;30.58;;;;;;;18.21;100.00;100451.72;2055224;28;21026;-74
2022/08/16 01:22:00;;;;;;;30.67;27.38;;;;;;;18.20;100.00;100455.41;2054877;28;24662;-74
2022/08/16 01:23:37;;;;;;;35.25;31.38;;;;;;;18.18;100.00;100452.78;2048887;28;20912;-74
2022/08/16 01:25:14;;;;;;;31.55;28.33;;;;;;;18.19;100.00;100465.34;2055926;28;20809;-74
2022/08/16 01:26:17;;;;;;;35.80;31.98;;;;;;;18.22;100.00;100458.91;2047974;28;20051;-74
2022/08/16 01:27:43;;;;;;;35.28;31.25;;;;;;;18.22;100.00;100462.47;2047163;28;25360;-74
2022/08/16 01:28:47;;;;;;;33.22;29.80;;;;;;;18.20;100.00;100455.41;2033335;29;20099;-74
2022/08/16 01:30:04;;;;;;;33.13;29.63;;;;;;;18.19;100.00;100454.53;2048982;28;20138;-74
2022/08/16 01:31:10;;;;;;;33.47;29.25;;;;;;;18.20;100.00;100464.41;2047713;28;20235;-74
2022/08/16 01:32:14;;;;;;;34.53;31.13;;;;;;;18.19;100.00;100459.06;2048526;28;20184;-74
2022/08/16 01:33:19;;;;;;;32.35;29.05;;;;;;;18.18;100.00;100462.75;2055525;28;20031;-74
2022/08/16 01:34:24;;;;;;;32.85;29.45;;;;;;;18.17;100.00;100459.16;2055572;28;20051;-73
2022/08/16 01:35:36;;;;;;;32.90;29.52;;;;;;;18.18;100.00;100458.22;2047256;28;20036;-74
2022/08/16 01:36:41;;;;;;;35.50;31.77;;;;;;;18.17;100.00;100461.88;2047621;28;20169;-74
2022/08/16 01:37:55;;;;;;;35.00;31.52;;;;;;;18.16;100.00;100467.38;2047573;28;20118;-74
2022/08/16 01:39:13;;;;;;;33.15;29.67;;;;;;;18.15;100.00;100461.09;2047734;28;20177;-74
2022/08/16 01:40:18;;;;;;;31.15;28.05;;;;;;;18.12;100.00;100456.75;2047732;28;20615;-73
2022/08/16 01:41:29;;;;;;;30.10;27.10;;;;;;;18.12;100.00;100458.56;2032418;29;20194;-73
2022/08/16 01:42:33;;;;;;;33.00;29.67;;;;;;;18.11;100.00;100457.72;2049610;28;20103;-74
2022/08/16 01:43:38;;;;;;;34.83;31.15;;;;;;;18.11;100.00;100456.84;2047124;28;20051;-73
2022/08/16 01:44:41;;;;;;;29.73;26.83;;;;;;;18.12;100.00;100461.28;2048372;28;20908;-73
2022/08/16 01:45:43;;;;;;;31.40;28.45;;;;;;;18.11;100.00;100457.72;2055264;28;20039;-74
2022/08/16 01:46:48;;;;;;;31.95;28.70;;;;;;;18.13;100.00;100458.50;2055721;28;20887;-74
2022/08/16 01:47:52;;;;;;;32.45;29.23;;;;;;;18.13;100.00;100461.19;2055483;28;20044;-73
2022/08/16 01:49:09;;;;;;;34.17;30.67;;;;;;;18.18;100.00;100457.31;2047242;28;20047;-74
2022/08/16 01:50:12;;;;;;;32.35;29.05;;;;;;;18.17;100.00;100455.59;2041434;28;20118;-74
2022/08/16 01:51:36;;;;;;;29.55;26.65;;;;;;;18.16;100.00;100456.56;2050256;28;20075;-73
2022/08/16 01:52:42;;;;;;;31.67;28.25;;;;;;;18.15;100.00;100458.41;2047480;28;20064;-73
2022/08/16 01:53:59;;;;;;;32.17;28.83;;;;;;;18.16;100.00;100460.16;2047664;28;20856;-73
2022/08/16 01:55:06;;;;;;;32.28;28.80;;;;;;;18.17;100.00;100464.59;2047973;28;20095;-73
2022/08/16 01:56:09;;;;;;;31.88;28.77;;;;;;;18.18;100.00;100465.44;2055846;28;20054;-74
2022/08/16 01:57:25;;;;;;;32.55;28.75;;;;;;;18.18;100.00;100466.34;2047813;28;20042;-73
2022/08/16 01:58:27;;;;;;;28.08;25.17;;;;;;;18.16;100.00;100468.28;2047650;28;21011;-74
2022/08/16 01:59:31;;;;;;;32.05;28.75;;;;;;;18.16;100.00;100460.16;2055553;28;20087;-74
2022/08/16 02:00:33;;;;;;;29.08;26.20;;;;;;;18.15;100.00;100463.81;2054989;28;21015;-74
2022/08/16 02:01:37;;;;;;;29.73;26.67;;;;;;;18.15;100.00;100469.25;2055863;28;20043;-74
2022/08/16 02:02:41;;;;;;;30.25;27.20;;;;;;;18.15;100.00;100463.81;2054557;28;24658;-74
2022/08/16 02:03:46;;;;;;;32.22;28.95;;;;;;;18.16;100.00;100471.00;2047480;28;20103;-74
2022/08/16 02:04:52;;;;;;;28.70;25.83;;;;;;;18.17;100.00;100466.44;2048639;28;20900;-74
2022/08/16 02:05:57;;;;;;;30.33;27.42;;;;;;;18.15;99.98;100469.25;2055581;28;20042;-73
2022/08/16 02:06:59;;;;;;;30.60;27.50;;;;;;;18.14;100.00;100467.47;2055090;28;20987;-74
2022/08/16 02:08:03;;;;;;;28.13;25.35;;;;;;;18.12;99.98;100470.31;2055642;28;21021;-74
2022/08/16 02:09:07;;;;;;;29.95;26.88;;;;;;;18.14;100.00;100475.59;2055244;28;20047;-74
2022/08/16 02:10:13;;;;;;;30.35;27.13;;;;;;;18.14;99.77;100472.91;2054961;28;20062;-74
2022/08/16 02:11:17;;;;;;;28.13;25.23;;;;;;;18.11;99.93;100473.13;2047262;28;20048;-74
2022/08/16 02:12:19;;;;;;;26.60;24.05;;;;;;;18.10;100.00;100469.50;2048387;28;20035;-74
2022/08/16 02:13:41;;;;;;;28.63;25.77;;;;;;;18.10;100.00;100471.34;2047464;28;20107;-74
2022/08/16 02:14:47;;;;;;;27.02;24.42;;;;;;;18.08;100.00;100479.56;2040051;28;20063;-74
2022/08/16 02:15:49;;;;;;;29.90;26.92;;;;;;;18.09;100.00;100475.06;2039481;28;20029;-74
2022/08/16 02:16:51;;;;;;;29.08;26.27;;;;;;;18.05;99.87;100468.94;2046721;28;30261;-74
2022/08/16 02:17:59;;;;;;;26.65;23.92;;;;;;;18.03;100.00;100464.56;2054968;28;20058;-74
2022/08/16 02:19:04;;;;;;;26.08;23.48;;;;;;;18.01;99.89;100469.22;2047126;28;20055;-74
2022/08/16 02:20:18;;;;;;;25.02;22.63;;;;;;;17.97;99.89;100464.97;2047508;28;20961;-73
2022/08/16 02:21:21;;;;;;;23.02;20.83;;;;;;;17.93;99.92;100470.56;2047560;28;25330;-74
2022/08/16 02:23:04;;;;;;;22.17;20.13;;;;;;;17.88;99.78;100461.84;2048432;28;20043;-74
2022/08/16 02:24:31;;;;;;;27.27;24.58;;;;;;;17.80;100.00;100464.13;2048393;28;20079;-74
2022/08/16 02:25:41;;;;;;;24.63;22.13;;;;;;;17.80;99.95;100471.38;2047156;28;20044;-74
2022/08/16 02:26:53;;;;;;;23.85;21.65;;;;;;;17.78;100.00;100467.88;2048915;28;20174;-74
2022/08/16 02:27:56;;;;;;;25.08;22.50;;;;;;;17.76;100.00;100473.38;2046911;28;20039;-74
2022/08/16 02:28:58;;;;;;;22.50;20.35;;;;;;;17.74;100.00;100464.47;2047235;28;20048;-74
2022/08/16 02:30:00;;;;;;;23.38;20.95;;;;;;;17.72;100.00;100464.56;2046507;28;20052;-74
2022/08/16 02:31:10;;;;;;;24.15;21.83;;;;;;;17.70;100.00;100466.50;2047599;28;20182;-74
2022/08/16 02:32:16;;;;;;;23.33;21.08;;;;;;;17.67;100.00;100463.97;2054591;28;21042;-74
2022/08/16 02:33:38;;;;;;;22.63;20.52;;;;;;;17.67;100.00;100457.69;2055487;28;20054;-74
2022/08/16 02:34:48;;;;;;;25.05;22.52;;;;;;;17.65;100.00;100459.63;2047408;28;20095;-74
2022/08/16 02:35:51;;;;;;;25.23;22.67;;;;;;;17.65;100.00;100465.91;2039524;28;20103;-74
2022/08/16 02:36:56;;;;;;;26.48;23.67;;;;;;;17.63;100.00;100472.41;2047462;28;20262;-74
2022/08/16 02:38:00;;;;;;;24.63;22.35;;;;;;;17.61;100.00;100460.78;2039240;28;20048;-74
2022/08/16 02:39:12;;;;;;;25.42;22.92;;;;;;;17.65;100.00;100465.03;2048586;28;21124;-74
2022/08/16 02:40:16;;;;;;;25.77;23.08;;;;;;;17.65;100.00;100470.47;2054682;28;21011;-74
2022/08/16 02:41:18;;;;;;;25.27;22.63;;;;;;;17.65;100.00;100465.03;2048257;28;21020;-74
2022/08/16 02:42:20;;;;;;;27.80;24.88;;;;;;;17.66;100.00;100466.81;2046642;28;26151;-74
2022/08/16 02:43:25;;;;;;;25.95;23.40;;;;;;;17.66;100.00;100464.09;2047398;28;20051;-74
2022/08/16 02:44:30;;;;;;;24.85;22.38;;;;;;;17.65;100.00;100459.63;2055299;28;20166;-74
2022/08/16 02:45:35;;;;;;;26.17;23.42;;;;;;;17.67;100.00;100468.53;2055371;28;20055;-73
2022/08/16 02:46:37;;;;;;;24.30;21.92;;;;;;;17.69;100.00;100455.75;2046778;28;20885;-73
2022/08/16 02:47:42;;;;;;;26.13;23.52;;;;;;;17.67;100.00;100460.41;2047331;28;20107;-74
2022/08/16 02:49:02;;;;;;;23.15;20.92;;;;;;;17.67;100.00;100458.56;2055030;28;20047;-73
2022/08/16 02:50:06;;;;;;;23.45;21.08;;;;;;;17.67;100.00;100457.69;2055121;28;20205;-74
2022/08/16 02:51:28;;;;;;;23.85;21.45;;;;;;;17.65;100.00;100456.94;2047303;28;20039;-74
2022/08/16 02:52:30;;;;;;;23.52;21.13;;;;;;;17.64;100.00;100460.59;2046694;28;20840;-73
2022/08/16 02:53:43;;;;;;;23.75;21.38;;;;;;;17.62;100.00;100459.81;2047329;28;20058;-74
2022/08/16 02:54:45;;;;;;;24.25;21.73;;;;;;;17.60;100.00;100454.47;2046821;28;20184;-74
2022/08/16 02:55:50;;;;;;;24.58;22.23;;;;;;;17.61;100.00;100458.09;2047375;28;20055;-74
2022/08/16 02:56:52;;;;;;;24.38;22.02;;;;;;;17.61;100.00;100455.38;2039375;28;20064;-73
2022/08/16 02:57:54;;;;;;;22.25;20.05;;;;;;;17.61;100.00;100453.53;2047450;28;20122;-74
2022/08/16 02:58:56;;;;;;;26.77;24.05;;;;;;;17.60;100.00;100456.31;2055046;28;21559;-74
2022/08/16 02:59:58;;;;;;;26.30;23.77;;;;;;;17.59;100.00;100452.75;2047847;28;22119;-74
2022/08/16 03:01:00;;;;;;;25.58;22.92;;;;;;;17.61;100.00;100458.09;2054940;28;21071;-74
2022/08/16 03:02:03;;;;;;;26.40;23.92;;;;;;;17.61;100.00;100455.38;2055247;28;20032;-74
2022/08/16 03:03:10;;;;;;;24.08;21.67;;;;;;;17.60;100.00;100461.75;2054827;28;20113;-72
2022/08/16 03:04:15;;;;;;;26.02;23.52;;;;;;;17.60;100.00;100459.03;2046931;28;20189;-73
2022/08/16 03:05:31;;;;;;;24.52;22.08;;;;;;;17.58;100.00;100450.13;2049272;28;20817;-73
2022/08/16 03:06:35;;;;;;;23.98;21.52;;;;;;;17.58;100.00;100453.72;2055135;28;20047;-73
2022/08/16 03:07:49;;;;;;;24.42;22.05;;;;;;;17.58;100.00;100455.56;2055661;28;21016;-73
2022/08/16 03:08:52;;;;;;;29.50;26.52;;;;;;;17.58;100.00;100458.25;2055138;28;20186;-73
2022/08/16 03:09:58;;;;;;;23.83;21.55;;;;;;;17.58;100.00;100463.66;2054993;28;20995;-74
2022/08/16 03:11:02;;;;;;;28.63;25.77;;;;;;;17.58;100.00;100459.13;2055050;28;20857;-73
2022/08/16 03:12:07;;;;;;;25.48;22.92;;;;;;;17.59;100.00;100460.88;2046926;28;20044;-73
2022/08/16 03:13:10;;;;;;;27.35;24.63;;;;;;;17.59;100.00;100460.88;2039357;28;20095;-73
2022/08/16 03:14:13;;;;;;;28.92;26.13;;;;;;;17.60;100.00;100457.19;2047413;28;20040;-74
2022/08/16 03:15:17;;;;;;;28.95;25.98;;;;;;;17.61;100.00;100452.66;2054790;28;20907;-73
2022/08/16 03:16:21;;;;;;;26.95;24.15;;;;;;;17.61;100.00;100455.38;2047129;28;20129;-73
2022/08/16 03:17:34;;;;;;;27.00;24.35;;;;;;;17.60;100.00;100445.50;2048609;28;20075;-73
2022/08/16 03:18:38;;;;;;;27.58;24.77;;;;;;;17.60;100.00;100445.50;2055240;28;20031;-73
2022/08/16 03:19:41;;;;;;;25.75;23.15;;;;;;;17.58;100.00;100448.28;2054472;28;20118;-73
2022/08/16 03:20:50;;;;;;;24.80;22.50;;;;;;;17.59;100.00;100446.47;2047114;28;20335;-73
2022/08/16 03:21:56;;;;;;;29.25;26.02;;;;;;;17.58;100.00;100453.72;2047446;28;21214;-73
2022/08/16 03:22:59;;;;;;;29.10;26.15;;;;;;;17.58;100.00;100442.00;2055251;28;20043;-73
2022/08/16 03:24:02;;;;;;;29.50;26.45;;;;;;;17.59;100.00;100444.63;2046783;28;20090;-73
2022/08/16 03:25:10;;;;;;;29.60;26.65;;;;;;;17.60;100.00;100450.91;2047070;28;20044;-73
2022/08/16 03:26:17;;;;;;;28.23;25.42;;;;;;;17.62;100.00;100447.16;2046862;28;20052;-73
2022/08/16 03:27:19;;;;;;;29.02;26.23;;;;;;;17.65;100.00;100443.38;2039361;28;20794;-73
2022/08/16 03:28:21;;;;;;;28.45;25.50;;;;;;;17.66;100.00;100448.72;2046902;28;20199;-73
2022/08/16 03:29:26;;;;;;;31.45;28.38;;;;;;;17.65;100.00;100448.81;2054751;28;26582;-73
2022/08/16 03:30:34;;;;;;;30.45;27.38;;;;;;;17.64;100.00;100449.75;2047957;28;20079;-73
2022/08/16 03:31:38;;;;;;;31.52;28.27;;;;;;;17.66;100.00;100451.41;2083932;23;20883;-72
2022/08/16 03:32:44;;;;;;;30.35;27.45;;;;;;;17.66;100.00;100448.72;2072789;28;20923;-72
2022/08/16 03:33:45;;;;;;;30.25;27.15;;;;;;;17.63;100.00;100443.47;2062465;28;20075;-72
2022/08/16 03:34:47;;;;;;;30.42;27.48;;;;;;;17.63;100.00;100443.47;2062786;28;20047;-72
2022/08/16 03:35:52;;;;;;;28.98;26.20;;;;;;;17.62;100.00;100448.97;2070986;28;20039;-71
2022/08/16 03:37:02;;;;;;;28.48;25.40;;;;;;;17.61;100.00;100449.97;2062904;28;20153;-72
2022/08/16 03:38:07;;;;;;;30.70;27.58;;;;;;;17.61;100.00;100452.66;2062929;28;20057;-72
2022/08/16 03:39:31;;;;;;;32.55;29.10;;;;;;;17.62;100.00;100448.97;2054889;28;20051;-72
2022/08/16 03:40:34;;;;;;;33.05;29.65;;;;;;;17.62;100.00;100448.97;2046756;28;20104;-72
2022/08/16 03:41:40;;;;;;;33.20;29.75;;;;;;;17.62;100.00;100448.97;2055447;28;21130;-72
2022/08/16 03:42:51;;;;;;;32.95;29.40;;;;;;;17.63;100.00;100448.03;2062917;28;20046;-72
2022/08/16 03:44:01;;;;;;;32.00;28.90;;;;;;;17.63;100.00;100450.72;2063874;28;20202;-72
2022/08/16 03:45:10;;;;;;;31.52;28.35;;;;;;;17.66;100.00;100450.56;2064299;28;20047;-72
2022/08/16 03:46:12;;;;;;;32.25;29.05;;;;;;;17.66;100.00;100447.84;2072659;28;20046;-71
2022/08/16 03:47:37;;;;;;;31.08;27.83;;;;;;;17.65;100.00;100449.66;2053456;28;20870;-72
2022/08/16 03:48:39;;;;;;;30.23;27.27;;;;;;;17.64;100.00;100450.66;2048136;28;20044;-72
2022/08/16 03:49:52;;;;;;;27.30;24.58;;;;;;;17.65;100.00;100446.97;2048263;28;20039;-71
2022/08/16 03:50:57;;;;;;;30.75;27.45;;;;;;;17.66;100.00;100451.41;2047845;28;20087;-72
2022/08/16 03:52:01;;;;;;;33.28;29.90;;;;;;;17.67;100.00;100446.88;2041266;28;20048;-72
2022/08/16 03:53:06;;;;;;;34.88;31.30;;;;;;;17.69;100.00;100451.25;2047908;28;20722;-72
2022/08/16 03:54:09;;;;;;;36.30;32.40;;;;;;;17.69;100.00;100456.66;2048420;28;20121;-72
2022/08/16 03:55:14;;;;;;;34.35;30.73;;;;;;;17.70;100.00;100457.53;2040423;29;20993;-72
2022/08/16 03:56:16;;;;;;;36.55;32.75;;;;;;;17.72;100.00;100455.59;2032768;29;20111;-72
2022/08/16 03:57:21;;;;;;;32.30;29.02;;;;;;;17.73;100.00;100451.94;2040365;28;20658;-71
2022/08/16 03:58:22;;;;;;;31.75;28.50;;;;;;;17.73;100.00;100441.97;2048471;28;20191;-74
2022/08/16 03:59:24;;;;;;;33.47;30.17;;;;;;;17.76;100.00;100451.72;2048004;28;20039;-73
2022/08/16 04:00:30;;;;;;;35.83;32.38;;;;;;;17.78;100.00;100460.63;2040412;29;20116;-71
2022/08/16 04:01:39;;;;;;;34.95;31.55;;;;;;;17.78;100.00;100455.19;2041465;28;20039;-72
2022/08/16 04:02:45;;;;;;;33.67;30.25;;;;;;;17.78;100.00;100455.19;2060061;28;20047;-72
2022/08/16 04:03:55;;;;;;;35.08;31.48;;;;;;;17.80;100.00;100452.41;2056272;28;20040;-71
2022/08/16 04:05:00;;;;;;;33.55;30.23;;;;;;;17.80;100.00;100457.81;2056992;28;20055;-73
2022/08/16 04:06:03;;;;;;;34.47;30.88;;;;;;;17.81;100.00;100459.56;2056869;28;20040;-72
2022/08/16 04:07:07;;;;;;;33.63;30.27;;;;;;;17.83;100.00;100458.50;2049143;28;20355;-72
2022/08/16 04:08:18;;;;;;;37.80;34.03;;;;;;;17.83;100.00;100457.66;2048903;28;20043;-72
2022/08/16 04:09:26;;;;;;;35.53;31.90;;;;;;;17.84;100.00;100456.69;2048864;28;20186;-72
2022/08/16 04:10:27;;;;;;;35.58;31.90;;;;;;;17.82;100.00;100454.06;2041564;29;20131;-71
2022/08/16 04:11:34;;;;;;;35.47;31.77;;;;;;;17.84;100.00;100454.84;2042479;28;20965;-72
2022/08/16 04:12:40;;;;;;;35.38;31.88;;;;;;;17.86;100.00;100455.66;2048490;28;20347;-72
2022/08/16 04:13:53;;;;;;;39.08;34.95;;;;;;;17.88;100.00;100461.84;2040050;29;23489;-72
2022/08/16 04:15:10;;;;;;;36.70;32.92;;;;;;;17.88;100.00;100456.44;2040492;29;20056;-72
2022/08/16 04:16:17;;;;;;;35.38;31.88;;;;;;;17.89;100.00;100460.88;2041347;28;20055;-72
2022/08/16 04:17:25;;;;;;;36.17;32.42;;;;;;;17.91;100.00;100458.94;2048020;28;20166;-72
2022/08/16 04:18:29;;;;;;;34.70;31.05;;;;;;;17.90;100.00;100467.16;2056416;28;20939;-71
2022/08/16 04:19:35;;;;;;;34.75;31.23;;;;;;;17.92;100.00;100462.53;2055352;28;20043;-71
2022/08/16 04:20:38;;;;;;;35.10;31.63;;;;;;;17.93;100.00;100459.72;2056121;28;20052;-72
2022/08/16 04:21:45;;;;;;;36.70;33.05;;;;;;;17.97;100.00;100455.00;2056096;28;20247;-72
2022/08/16 04:22:52;;;;;;;36.45;32.83;;;;;;;17.99;100.00;100457.63;2056122;28;20043;-72
2022/08/16 04:23:54;;;;;;;39.10;34.72;;;;;;;18.02;100.00;100457.44;2055582;28;20956;-72
2022/08/16 04:24:56;;;;;;;36.53;32.83;;;;;;;18.03;100.00;100464.56;2056052;28;20050;-72
2022/08/16 04:26:07;;;;;;;37.35;33.70;;;;;;;18.03;100.00;100462.72;2055086;28;20782;-72
2022/08/16 04:27:18;;;;;;;37.72;34.03;;;;;;;18.07;100.00;100455.28;2056181;28;20035;-72
2022/08/16 04:28:20;;;;;;;35.65;32.13;;;;;;;18.06;100.00;100464.41;2055601;28;20051;-72
2022/08/16 04:29:30;;;;;;;;;;;;;;;18.07;100.00;100461.59;2048779;28;20051;-71
2022/08/16 04:30:45;;;;;;;34.55;30.95;;;;;;;18.08;100.00;100471.44;2057603;28;19926;-72
2022/08/16 04:31:49;;;;;;;35.83;32.25;;;;;;;18.10;100.00;100466.81;2063867;28;20938;-74
2022/08/16 04:33:00;;;;;;;37.47;33.63;;;;;;;18.11;100.00;100468.56;2063646;28;20410;-73
2022/08/16 04:34:05;;;;;;;38.83;34.83;;;;;;;18.12;100.00;100472.13;2063254;28;20050;-73
2022/08/16 04:35:14;;;;;;;37.35;33.33;;;;;;;18.13;100.00;100473.88;2055289;28;21097;-72
2022/08/16 04:36:20;;;;;;;36.80;33.20;;;;;;;18.17;100.00;100474.56;2049576;28;20055;-72
2022/08/16 04:37:22;;;;;;;36.88;33.15;;;;;;;18.17;100.00;100478.13;2056073;28;20897;-71
2022/08/16 04:38:31;;;;;;;35.17;31.80;;;;;;;18.18;100.00;100469.06;2055718;28;20903;-71
2022/08/16 04:39:35;;;;;;;31.92;28.60;;;;;;;18.20;100.00;100468.97;2056025;28;20872;-72
2022/08/16 04:40:50;;;;;;;37.03;33.33;;;;;;;18.22;100.00;100475.16;2047854;28;20127;-72
2022/08/16 04:41:52;;;;;;;33.22;29.83;;;;;;;18.25;100.00;100480.34;2048812;28;20040;-72
2022/08/16 04:43:01;;;;;;;32.30;29.05;;;;;;;18.28;100.00;100482.88;2055738;28;20902;-72
2022/08/16 04:44:04;;;;;;;35.72;32.13;;;;;;;18.29;100.00;100479.22;2064243;28;20043;-72
2022/08/16 04:45:28;;;;;;;34.30;30.88;;;;;;;18.31;100.00;100486.28;2053069;28;20036;-72
2022/08/16 04:46:39;;;;;;;32.05;28.85;;;;;;;18.32;100.00;100479.00;2051680;28;20043;-72
2022/08/16 04:48:02;;;;;;;36.05;32.25;;;;;;;18.35;100.00;100483.38;2064208;28;20152;-72
2022/08/16 04:49:11;;;;;;;32.00;28.88;;;;;;;18.39;100.00;100479.50;2055536;28;20055;-72
2022/08/16 04:50:22;;;;;;;30.73;27.67;;;;;;;18.42;100.00;100482.03;2048535;28;21086;-73
2022/08/16 04:51:31;;;;;;;29.73;26.70;;;;;;;18.45;100.00;100480.00;2058411;28;20043;-71
2022/08/16 04:52:37;;;;;;;32.50;29.23;;;;;;;18.51;99.68;100484.16;2064206;28;20042;-72
2022/08/16 04:53:39;;;;;;;32.15;28.88;;;;;;;18.59;99.54;100484.56;2063577;28;20047;-72
2022/08/16 04:54:42;;;;;;;35.05;31.55;;;;;;;18.70;99.28;100483.88;2055487;28;20039;-72
2022/08/16 04:55:44;;;;;;;33.53;30.02;;;;;;;18.89;98.88;100489.84;2055657;28;20162;-72
2022/08/16 04:56:46;;;;;;;32.65;29.35;;;;;;;19.07;98.13;100490.47;2056373;28;20786;-72
2022/08/16 04:57:52;;;;;;;30.42;27.42;;;;;;;19.21;97.19;100494.16;2063705;28;20050;-72
2022/08/16 04:58:56;;;;;;;32.50;29.27;;;;;;;19.20;96.28;100484.25;2063786;28;20255;-73
2022/08/16 04:59:58;;;;;;;31.13;27.98;;;;;;;19.32;95.40;100488.88;2055495;28;20158;-72
2022/08/16 05:01:20;;;;;;;29.10;26.13;;;;;;;19.52;95.09;100497.53;2056087;28;20133;-71
2022/08/16 05:02:23;;;;;;;30.05;27.05;;;;;;;19.54;93.52;100492.84;2055990;28;20162;-73
2022/08/16 05:03:44;;;;;;;26.58;24.05;;;;;;;19.63;93.89;100492.22;2055632;28;20931;-72